createdAt,value
2019-03-23T16:46:53.231Z,11.80
2019-03-23T16:47:26.260Z,11.70
2019-03-23T16:47:59.415Z,11.70
2019-03-23T16:48:32.422Z,11.70
2019-03-23T16:49:05.740Z,11.70
2019-03-23T16:49:38.756Z,11.70
2019-03-23T16:50:11.793Z,11.70
2019-03-23T16:50:45.172Z,11.60
2019-03-23T16:51:18.185Z,11.60
2019-03-23T16:51:51.218Z,11.60
2019-03-23T16:52:24.659Z,11.60
2019-03-23T16:52:57.790Z,11.60
2019-03-23T16:53:30.918Z,11.60
2019-03-23T16:54:03.935Z,11.60
2019-03-23T16:54:36.946Z,11.60
2019-03-23T16:55:10.335Z,11.50
2019-03-23T16:55:43.334Z,11.50
2019-03-23T16:56:16.347Z,11.50
2019-03-23T16:56:49.358Z,11.50
2019-03-23T16:57:22.384Z,11.50
2019-03-23T16:57:55.576Z,11.50
2019-03-23T16:58:28.954Z,11.50
2019-03-23T16:59:02.205Z,11.50
2019-03-23T16:59:35.320Z,11.50
2019-03-23T17:00:09.316Z,11.50
2019-03-23T17:00:42.360Z,11.50
2019-03-23T17:01:15.425Z,11.50
2019-03-23T17:01:48.448Z,11.50
2019-03-23T17:02:21.935Z,11.50
2019-03-23T17:02:54.953Z,11.50
2019-03-23T17:03:28.009Z,11.50
2019-03-23T17:04:01.032Z,11.50
2019-03-23T17:04:34.035Z,11.50
2019-03-23T17:05:07.400Z,11.50
2019-03-23T17:05:42.021Z,11.50
2019-03-23T17:06:15.473Z,11.50
2019-03-23T17:06:48.844Z,11.50
2019-03-23T17:07:22.265Z,11.50
2019-03-23T17:07:56.424Z,11.50
2019-03-23T17:08:29.729Z,11.50
2019-03-23T17:09:04.775Z,11.50
2019-03-23T17:09:37.796Z,11.50
2019-03-23T17:10:10.925Z,11.60
2019-03-23T17:10:43.938Z,11.60
2019-03-23T17:11:16.942Z,11.60
2019-03-23T17:11:50.086Z,11.60
2019-03-23T17:12:23.407Z,11.60
2019-03-23T17:12:56.437Z,11.60
2019-03-23T17:13:29.452Z,11.60
2019-03-23T17:14:04.305Z,11.50
2019-03-23T17:14:37.350Z,11.60
2019-03-23T17:15:10.485Z,11.60
2019-03-23T17:15:43.504Z,11.60
2019-03-23T17:16:16.525Z,11.60
2019-03-23T17:16:49.530Z,11.60
2019-03-23T17:17:22.556Z,11.60
2019-03-23T17:17:55.936Z,11.60
2019-03-23T17:18:28.956Z,11.60
2019-03-23T17:19:02.360Z,11.60
2019-03-23T17:19:35.407Z,11.50
2019-03-23T17:20:08.687Z,11.60
2019-03-23T17:20:41.690Z,11.60
2019-03-23T17:21:14.716Z,11.60
2019-03-23T17:21:48.159Z,11.60
2019-03-23T17:22:21.170Z,11.60
2019-03-23T17:22:54.178Z,11.60
2019-03-23T17:23:27.590Z,11.60
2019-03-23T17:24:00.753Z,11.60
2019-03-23T17:24:34.138Z,11.60
2019-03-23T17:25:08.361Z,11.60
2019-03-23T17:25:41.419Z,11.70
2019-03-23T17:26:15.226Z,11.70
2019-03-23T17:26:48.255Z,11.70
2019-03-23T17:27:21.674Z,11.70
2019-03-23T17:28:15.714Z,11.70
2019-03-23T17:28:49.638Z,11.70
2019-03-23T17:29:22.650Z,11.70
2019-03-23T17:29:56.111Z,11.70
2019-03-23T17:30:29.233Z,11.70
2019-03-23T17:31:02.715Z,11.70
2019-03-23T17:31:35.740Z,11.70
2019-03-23T17:32:08.767Z,11.70
2019-03-23T17:32:41.762Z,11.80
2019-03-23T17:33:15.470Z,11.80
2019-03-23T17:33:49.010Z,11.90
2019-03-23T17:34:22.448Z,11.90
2019-03-23T17:34:56.214Z,11.90
2019-03-23T17:35:29.659Z,11.90
2019-03-23T17:36:02.985Z,11.90
2019-03-23T17:36:36.041Z,11.90
2019-03-23T17:37:09.103Z,11.80
2019-03-23T17:37:42.420Z,11.80
2019-03-23T17:38:15.440Z,11.80
2019-03-23T17:38:48.447Z,11.90
2019-03-23T17:39:21.480Z,11.80
2019-03-23T17:39:54.505Z,11.80
2019-03-23T17:40:27.528Z,11.80
2019-03-23T17:41:00.985Z,11.80
2019-03-23T17:41:34.000Z,11.80
2019-03-23T17:42:07.053Z,11.80
2019-03-23T17:42:40.061Z,11.80
2019-03-23T17:43:13.104Z,11.70
2019-03-23T17:43:46.118Z,11.70
2019-03-23T17:44:19.145Z,11.70
2019-03-23T17:44:52.179Z,11.70
2019-03-23T17:45:25.187Z,11.80
2019-03-23T17:45:59.651Z,11.70
2019-03-23T17:46:33.046Z,11.70
2019-03-23T17:47:06.068Z,11.70
2019-03-23T17:47:39.558Z,11.70
2019-03-23T17:48:12.571Z,11.70
2019-03-23T17:48:45.996Z,11.70
2019-03-23T17:49:19.021Z,11.70
2019-03-23T17:49:52.033Z,11.70
2019-03-23T17:50:25.048Z,11.70
2019-03-23T17:50:58.067Z,11.70
2019-03-23T17:51:31.451Z,11.70
2019-03-23T17:52:04.935Z,11.70
2019-03-23T17:52:38.315Z,11.70
2019-03-23T17:53:11.376Z,11.70
2019-03-23T17:53:44.674Z,11.70
2019-03-23T17:54:17.704Z,11.70
2019-03-23T17:54:50.710Z,11.70
2019-03-23T17:55:23.744Z,11.70
2019-03-23T17:55:56.764Z,11.70
2019-03-23T17:56:30.150Z,11.70
2019-03-23T17:57:03.173Z,11.80
2019-03-23T17:57:36.200Z,11.70
2019-03-23T17:58:09.214Z,11.80
2019-03-23T17:58:42.560Z,11.80
2019-03-23T17:59:15.563Z,11.80
2019-03-23T17:59:48.583Z,11.70
2019-03-23T18:00:21.602Z,11.70
2019-03-23T18:00:54.659Z,11.70
2019-03-23T18:01:27.680Z,11.70
2019-03-23T18:02:01.154Z,11.70
2019-03-23T18:02:34.176Z,11.70
2019-03-23T18:03:07.199Z,11.70
2019-03-23T18:03:40.211Z,11.70
2019-03-23T18:04:13.257Z,11.80
2019-03-23T18:04:46.266Z,11.80
2019-03-23T18:05:19.273Z,11.80
2019-03-23T18:05:52.296Z,11.80
2019-03-23T18:06:25.646Z,11.80
2019-03-23T18:06:58.677Z,11.80
2019-03-23T18:07:31.700Z,11.80
2019-03-23T18:08:04.714Z,11.80
2019-03-23T18:08:38.024Z,11.80
2019-03-23T18:09:11.358Z,11.70
2019-03-23T18:09:44.407Z,11.70
2019-03-23T18:10:17.422Z,11.70
2019-03-23T18:10:50.456Z,11.70
2019-03-23T18:11:23.803Z,11.70
2019-03-23T18:11:57.182Z,11.70
2019-03-23T18:12:30.212Z,11.70
2019-03-23T18:13:03.236Z,11.70
2019-03-23T18:13:36.261Z,11.70
2019-03-23T18:14:10.907Z,11.60
2019-03-23T18:14:43.919Z,11.60
2019-03-23T18:15:16.976Z,11.60
2019-03-23T18:15:50.360Z,11.50
2019-03-23T18:16:23.374Z,11.50
2019-03-23T18:16:56.386Z,11.50
2019-03-23T18:17:29.782Z,11.50
2019-03-23T18:18:02.797Z,11.40
2019-03-23T18:18:35.820Z,11.40
2019-03-23T18:19:09.248Z,11.40
2019-03-23T18:19:42.272Z,11.30
2019-03-23T18:20:15.386Z,11.30
2019-03-23T18:20:48.548Z,11.20
2019-03-23T18:21:21.868Z,11.20
2019-03-23T18:21:55.208Z,11.10
2019-03-23T18:22:28.236Z,11.10
2019-03-23T18:23:01.332Z,11.10
2019-03-23T18:23:34.741Z,11.10
2019-03-23T18:24:08.146Z,11.00
2019-03-23T18:24:41.163Z,11.00
2019-03-23T18:25:14.193Z,11.00
2019-03-23T18:25:47.208Z,11.00
2019-03-23T18:26:20.244Z,11.00
2019-03-23T18:26:53.263Z,11.00
2019-03-23T18:27:26.289Z,11.10
2019-03-23T18:27:59.312Z,11.10
2019-03-23T18:28:32.326Z,11.10
2019-03-23T18:29:05.342Z,11.20
2019-03-23T18:29:38.362Z,11.20
2019-03-23T18:30:44.562Z,11.20
2019-03-23T18:31:17.592Z,11.10
2019-03-23T18:31:50.634Z,11.20
2019-03-23T18:32:23.645Z,11.20
2019-03-23T18:32:56.664Z,11.20
2019-03-23T18:33:29.772Z,11.20
2019-03-23T18:34:02.793Z,11.30
2019-03-23T18:34:35.817Z,11.30
2019-03-23T18:35:09.146Z,11.30
2019-03-23T18:35:42.520Z,11.40
2019-03-23T18:36:15.545Z,11.40
2019-03-23T18:36:49.054Z,11.40
2019-03-23T18:37:22.124Z,11.40
2019-03-23T18:37:55.118Z,11.40
2019-03-23T18:38:28.147Z,11.40
2019-03-23T18:39:01.780Z,11.50
2019-03-23T18:39:34.798Z,11.50
2019-03-23T18:40:08.327Z,11.40
2019-03-23T18:40:41.818Z,11.40
2019-03-23T18:41:15.503Z,11.50
2019-03-23T18:41:48.910Z,11.50
2019-03-23T18:42:21.927Z,11.50
2019-03-23T18:42:54.984Z,11.50
2019-03-23T18:43:28.328Z,11.50
2019-03-23T18:44:01.343Z,11.50
2019-03-23T18:44:34.384Z,11.50
2019-03-23T18:45:07.531Z,11.50
2019-03-23T18:45:40.543Z,11.50
2019-03-23T18:46:13.555Z,11.50
2019-03-23T18:46:46.985Z,11.50
2019-03-23T18:47:20.389Z,11.50
2019-03-23T18:47:53.408Z,11.50
2019-03-23T18:48:26.488Z,11.50
2019-03-23T18:48:59.504Z,11.50
2019-03-23T18:49:32.523Z,11.50
2019-03-23T18:50:05.984Z,11.50
2019-03-23T18:50:39.008Z,11.50
2019-03-23T18:51:12.024Z,11.50
2019-03-23T18:51:45.039Z,11.50
2019-03-23T18:52:18.050Z,11.50
2019-03-23T18:52:51.072Z,11.50
2019-03-23T18:53:24.235Z,11.60
2019-03-23T18:53:57.404Z,11.60
2019-03-23T18:54:30.410Z,11.60
2019-03-23T18:55:04.366Z,11.60
2019-03-23T18:55:37.382Z,11.60
2019-03-23T18:56:10.697Z,11.50
2019-03-23T18:56:43.712Z,11.50
2019-03-23T18:57:17.046Z,11.50
2019-03-23T18:57:50.853Z,11.50
2019-03-23T18:58:24.183Z,11.40
2019-03-23T18:58:57.196Z,11.40
2019-03-23T18:59:30.244Z,11.40
2019-03-23T19:00:03.465Z,11.40
2019-03-23T19:00:39.267Z,11.40
2019-03-23T19:01:12.283Z,11.40
2019-03-23T19:01:45.649Z,11.40
2019-03-23T19:02:18.659Z,11.40
2019-03-23T19:02:52.164Z,11.40
2019-03-23T19:03:25.489Z,11.40
2019-03-23T19:03:58.495Z,11.40
2019-03-23T19:04:31.630Z,11.40
2019-03-23T19:05:04.832Z,11.40
2019-03-23T19:05:37.952Z,11.50
2019-03-23T19:06:10.970Z,11.50
2019-03-23T19:06:44.385Z,11.60
2019-03-23T19:07:17.408Z,11.60
2019-03-23T19:07:50.432Z,11.60
2019-03-23T19:08:23.783Z,11.60
2019-03-23T19:08:56.812Z,11.60
2019-03-23T19:09:29.823Z,11.50
2019-03-23T19:10:03.210Z,11.50
2019-03-23T19:10:36.272Z,11.50
2019-03-23T19:11:09.300Z,11.50
2019-03-23T19:11:42.309Z,11.50
2019-03-23T19:12:15.748Z,11.50
2019-03-23T19:12:48.767Z,11.50
2019-03-23T19:13:22.085Z,11.50
2019-03-23T19:13:55.396Z,11.50
2019-03-23T19:14:28.776Z,11.50
2019-03-23T19:15:01.797Z,11.40
2019-03-23T19:15:35.402Z,11.40
2019-03-23T19:16:08.449Z,11.40
2019-03-23T19:16:41.467Z,11.40
2019-03-23T19:17:14.476Z,11.30
2019-03-23T19:17:47.491Z,11.30
2019-03-23T19:18:20.893Z,11.30
2019-03-23T19:18:53.906Z,11.20
2019-03-23T19:19:27.236Z,11.30
2019-03-23T19:20:00.658Z,11.20
2019-03-23T19:20:33.691Z,11.20
2019-03-23T19:21:06.725Z,11.20
2019-03-23T19:21:39.775Z,11.20
2019-03-23T19:22:13.137Z,11.20
2019-03-23T19:22:46.156Z,11.10
2019-03-23T19:23:19.178Z,11.10
2019-03-23T19:23:52.200Z,11.10
2019-03-23T19:24:25.219Z,11.10
2019-03-23T19:24:58.239Z,11.10
2019-03-23T19:25:31.238Z,11.10
2019-03-23T19:26:04.295Z,11.10
2019-03-23T19:26:37.328Z,11.10
2019-03-23T19:27:10.363Z,11.10
2019-03-23T19:27:43.393Z,11.10
2019-03-23T19:28:16.556Z,11.10
2019-03-23T19:28:49.559Z,11.10
2019-03-23T19:29:22.940Z,11.10
2019-03-23T19:29:56.303Z,11.10
2019-03-23T19:30:29.663Z,11.00
2019-03-23T19:31:02.695Z,11.00
2019-03-23T19:31:36.143Z,11.00
2019-03-23T19:32:09.436Z,11.00
2019-03-23T19:32:42.530Z,11.00
2019-03-23T19:33:15.986Z,11.00
2019-03-23T19:33:49.006Z,11.00
2019-03-23T19:34:22.028Z,11.00
2019-03-23T19:34:55.042Z,11.00
2019-03-23T19:35:28.066Z,11.00
2019-03-23T19:36:01.442Z,11.00
2019-03-23T19:36:34.868Z,11.00
2019-03-23T19:37:08.466Z,11.00
2019-03-23T19:37:41.487Z,11.00
2019-03-23T19:38:14.536Z,11.00
2019-03-23T19:38:47.566Z,11.00
2019-03-23T19:39:20.919Z,11.00
2019-03-23T19:39:53.945Z,11.00
2019-03-23T19:40:26.992Z,11.00
2019-03-23T19:40:59.997Z,11.00
2019-03-23T19:41:33.011Z,11.00
2019-03-23T19:42:06.015Z,10.90
2019-03-23T19:42:39.048Z,10.90
2019-03-23T19:43:12.511Z,10.90
2019-03-23T19:43:49.127Z,10.90
2019-03-23T19:44:20.460Z,11.00
2019-03-23T19:44:53.478Z,11.00
2019-03-23T19:45:26.479Z,11.00
2019-03-23T19:45:59.498Z,10.90
2019-03-23T19:46:32.976Z,10.90
2019-03-23T19:47:06.020Z,10.90
2019-03-23T19:47:39.049Z,10.90
2019-03-23T19:48:12.122Z,11.00
2019-03-23T19:48:45.132Z,11.00
2019-03-23T19:49:18.522Z,10.90
2019-03-23T19:49:51.550Z,10.90
2019-03-23T19:50:24.883Z,10.90
2019-03-23T19:50:58.269Z,10.90
2019-03-23T19:51:31.295Z,10.90
2019-03-23T19:52:04.336Z,10.90
2019-03-23T19:52:37.444Z,10.90
2019-03-23T19:53:10.899Z,10.90
2019-03-23T19:53:44.275Z,10.90
2019-03-23T19:54:18.053Z,10.90
2019-03-23T19:54:51.138Z,10.90
2019-03-23T19:55:24.512Z,10.90
2019-03-23T19:55:57.536Z,10.90
2019-03-23T19:56:30.578Z,10.90
2019-03-23T19:57:03.600Z,10.80
2019-03-23T19:57:36.907Z,10.80
2019-03-23T19:58:10.310Z,10.90
2019-03-23T19:58:43.344Z,10.90
2019-03-23T19:59:16.424Z,10.90
2019-03-23T19:59:49.460Z,10.90
2019-03-23T20:00:22.635Z,10.80
2019-03-23T20:00:55.646Z,10.90
2019-03-23T20:01:28.660Z,10.80
2019-03-23T20:02:01.685Z,10.80
2019-03-23T20:02:34.722Z,10.80
2019-03-23T20:03:07.746Z,10.80
2019-03-23T20:03:40.761Z,10.80
2019-03-23T20:04:13.770Z,10.90
2019-03-23T20:04:47.099Z,10.90
2019-03-23T20:05:20.122Z,10.90
2019-03-23T20:05:53.178Z,10.90
2019-03-23T20:06:26.196Z,10.90
2019-03-23T20:06:59.195Z,10.90
2019-03-23T20:07:33.395Z,10.90
2019-03-23T20:08:06.926Z,10.90
2019-03-23T20:08:40.404Z,10.90
2019-03-23T20:09:14.265Z,10.90
2019-03-23T20:09:47.288Z,10.90
2019-03-23T20:10:20.321Z,10.90
2019-03-23T20:10:53.695Z,10.90
2019-03-23T20:11:26.829Z,10.90
2019-03-23T20:11:59.861Z,10.90
2019-03-23T20:12:33.539Z,10.90
2019-03-23T20:13:06.643Z,10.90
2019-03-23T20:13:39.671Z,10.90
2019-03-23T20:14:12.678Z,10.90
2019-03-23T20:14:45.706Z,10.90
2019-03-23T20:15:18.834Z,10.90
2019-03-23T20:15:52.186Z,10.90
2019-03-23T20:16:25.203Z,10.90
2019-03-23T20:16:58.242Z,10.90
2019-03-23T20:17:31.255Z,10.90
2019-03-23T20:18:04.380Z,11.00
2019-03-23T20:18:37.392Z,11.00
2019-03-23T20:19:10.415Z,11.00
2019-03-23T20:19:43.851Z,11.00
2019-03-23T20:20:16.985Z,11.00
2019-03-23T20:20:49.996Z,11.00
2019-03-23T20:21:23.021Z,11.00
2019-03-23T20:21:56.040Z,10.90
2019-03-23T20:22:29.080Z,10.90
2019-03-23T20:23:02.095Z,11.00
2019-03-23T20:23:35.127Z,11.00
2019-03-23T20:24:08.138Z,11.00
2019-03-23T20:24:41.519Z,11.00
2019-03-23T20:25:14.542Z,10.90
2019-03-23T20:25:47.559Z,10.90
2019-03-23T20:26:20.574Z,10.90
2019-03-23T20:26:54.066Z,10.90
2019-03-23T20:27:27.098Z,11.00
2019-03-23T20:28:00.848Z,11.00
2019-03-23T20:28:33.855Z,10.90
2019-03-23T20:29:09.136Z,10.90
2019-03-23T20:29:42.064Z,10.90
2019-03-23T20:30:16.768Z,10.80
2019-03-23T20:30:49.775Z,10.80
2019-03-23T20:31:23.128Z,10.80
2019-03-23T20:31:56.159Z,10.80
2019-03-23T20:32:29.635Z,10.80
2019-03-23T20:33:02.653Z,10.80
2019-03-23T20:33:36.032Z,10.80
2019-03-23T20:34:09.714Z,10.80
2019-03-23T20:34:42.743Z,10.80
2019-03-23T20:35:15.760Z,10.80
2019-03-23T20:35:48.773Z,10.80
2019-03-23T20:36:22.146Z,10.70
2019-03-23T20:36:55.173Z,10.70
2019-03-23T20:37:28.180Z,10.70
2019-03-23T20:38:01.206Z,10.70
2019-03-23T20:38:34.206Z,10.60
2019-03-23T20:39:07.611Z,10.60
2019-03-23T20:39:40.687Z,10.50
2019-03-23T20:40:14.064Z,10.50
2019-03-23T20:40:47.763Z,10.50
2019-03-23T20:41:21.318Z,10.40
2019-03-23T20:41:54.302Z,10.40
2019-03-23T20:42:27.380Z,10.30
2019-03-23T20:43:00.777Z,10.30
2019-03-23T20:43:33.797Z,10.20
2019-03-23T20:44:09.628Z,10.20
2019-03-23T20:44:42.086Z,10.20
2019-03-23T20:45:27.919Z,10.10
2019-03-23T20:46:01.045Z,10.10
2019-03-23T20:46:34.394Z,10.10
2019-03-23T20:47:07.412Z,10.10
2019-03-23T20:47:40.619Z,10.20
2019-03-23T20:48:13.848Z,10.10
2019-03-23T20:48:46.880Z,10.20
2019-03-23T20:49:21.131Z,10.10
2019-03-23T20:49:54.288Z,10.10
2019-03-23T20:50:27.343Z,10.00
2019-03-23T20:51:00.364Z,10.00
2019-03-23T20:51:33.777Z,9.90
2019-03-23T20:52:06.948Z,9.90
2019-03-23T20:52:41.009Z,9.90
2019-03-23T20:53:15.734Z,9.90
2019-03-23T20:53:48.755Z,9.90
2019-03-23T20:54:21.881Z,9.80
2019-03-23T20:54:55.036Z,9.80
2019-03-23T20:55:29.443Z,9.80
2019-03-23T20:56:02.476Z,9.80
2019-03-23T20:56:35.508Z,9.80
2019-03-23T20:57:08.527Z,9.70
2019-03-23T20:57:41.536Z,9.70
2019-03-23T20:58:14.984Z,9.70
2019-03-23T20:58:48.002Z,9.60
2019-03-23T20:59:21.015Z,9.60
2019-03-23T20:59:54.326Z,9.50
2019-03-23T21:00:27.352Z,9.40
2019-03-23T21:01:00.800Z,9.40
2019-03-23T21:01:33.829Z,9.30
2019-03-23T21:02:06.846Z,9.30
2019-03-23T21:02:40.224Z,9.20
2019-03-23T21:03:13.248Z,9.20
2019-03-23T21:03:46.276Z,9.10
2019-03-23T21:04:19.819Z,9.10
2019-03-23T21:04:52.832Z,9.10
2019-03-23T21:05:33.902Z,9.00
2019-03-23T21:06:01.445Z,9.00
2019-03-23T21:06:34.502Z,8.90
2019-03-23T21:07:07.528Z,8.90
2019-03-23T21:07:40.553Z,8.90
2019-03-23T21:08:13.568Z,8.80
2019-03-23T21:08:46.592Z,8.80
2019-03-23T21:09:19.616Z,8.70
2019-03-23T21:09:53.013Z,8.70
2019-03-23T21:10:26.042Z,8.70
2019-03-23T21:10:59.051Z,8.60
2019-03-23T21:11:32.076Z,8.60
2019-03-23T21:12:05.516Z,8.60
2019-03-23T21:12:38.535Z,8.50
2019-03-23T21:13:11.566Z,8.50
2019-03-23T21:13:44.909Z,8.50
2019-03-23T21:14:20.396Z,8.40
2019-03-23T21:14:52.754Z,8.40
2019-03-23T21:15:26.075Z,8.40
2019-03-23T21:15:59.100Z,8.40
2019-03-23T21:16:32.114Z,8.40
2019-03-23T21:17:05.140Z,8.30
2019-03-23T21:17:50.411Z,8.30
2019-03-23T21:18:13.016Z,8.30
2019-03-23T21:18:46.040Z,8.20
2019-03-23T21:19:19.322Z,8.20
2019-03-23T21:19:52.343Z,8.20
2019-03-23T21:20:25.364Z,8.20
2019-03-23T21:20:58.378Z,8.20
2019-03-23T21:21:31.396Z,8.20
2019-03-23T21:22:04.500Z,8.20
2019-03-23T21:22:37.910Z,8.10
2019-03-23T21:23:10.938Z,8.10
2019-03-23T21:23:43.953Z,8.10
2019-03-23T21:24:16.968Z,8.10
2019-03-23T21:24:49.988Z,8.10
2019-03-23T21:25:23.008Z,8.10
2019-03-23T21:25:56.470Z,8.10
2019-03-23T21:26:29.512Z,8.00
2019-03-23T21:27:02.872Z,8.00
2019-03-23T21:27:36.196Z,8.00
2019-03-23T21:28:09.216Z,8.00
2019-03-23T21:28:42.267Z,8.00
2019-03-23T21:29:15.271Z,8.00
2019-03-23T21:29:48.296Z,8.00
2019-03-23T21:30:21.722Z,8.00
2019-03-23T21:30:54.747Z,8.00
2019-03-23T21:31:27.779Z,8.00
2019-03-23T21:32:01.050Z,7.90
2019-03-23T21:32:34.071Z,7.90
2019-03-23T21:33:07.400Z,7.90
2019-03-23T21:33:40.441Z,7.90
2019-03-23T21:34:13.482Z,7.90
2019-03-23T21:34:46.928Z,7.90
2019-03-23T21:35:19.940Z,7.80
2019-03-23T21:35:52.942Z,7.80
2019-03-23T21:36:25.955Z,7.80
2019-03-23T21:36:58.963Z,7.80
2019-03-23T21:37:31.988Z,7.80
2019-03-23T21:38:04.978Z,7.80
2019-03-23T21:38:38.004Z,7.80
2019-03-23T21:39:11.396Z,7.70
2019-03-23T21:39:44.465Z,7.70
2019-03-23T21:40:17.843Z,7.70
2019-03-23T21:40:50.865Z,7.70
2019-03-23T21:41:23.872Z,7.70
2019-03-23T21:41:56.900Z,7.70
2019-03-23T21:42:30.256Z,7.60
2019-03-23T21:43:03.381Z,7.60
2019-03-23T21:43:36.383Z,7.60
2019-03-23T21:44:09.420Z,7.60
2019-03-23T21:44:42.928Z,7.60
2019-03-23T21:45:15.963Z,7.50
2019-03-23T21:45:48.983Z,7.50
2019-03-23T21:46:22.807Z,7.50
2019-03-23T21:46:55.818Z,7.50
2019-03-23T21:47:28.983Z,7.50
2019-03-23T21:48:02.109Z,7.50
2019-03-23T21:48:35.543Z,7.40
2019-03-23T21:49:08.564Z,7.50
2019-03-23T21:49:41.586Z,7.50
2019-03-23T21:50:14.598Z,7.40
2019-03-23T21:50:48.079Z,7.40
2019-03-23T21:51:21.532Z,7.40
2019-03-23T21:51:54.547Z,7.40
2019-03-23T21:52:27.869Z,7.30
2019-03-23T21:53:00.879Z,7.30
2019-03-23T21:53:34.628Z,7.30
2019-03-23T21:54:07.635Z,7.30
2019-03-23T21:54:40.650Z,7.20
2019-03-23T21:55:14.346Z,7.20
2019-03-23T21:55:47.378Z,7.20
2019-03-23T21:56:20.415Z,7.20
2019-03-23T21:56:53.444Z,7.20
2019-03-23T21:57:26.771Z,7.10
2019-03-23T21:58:00.072Z,7.10
2019-03-23T21:58:33.096Z,7.10
2019-03-23T21:59:06.441Z,7.00
2019-03-23T21:59:39.462Z,7.00
2019-03-23T22:00:14.310Z,7.00
2019-03-23T22:00:47.737Z,7.00
2019-03-23T22:01:20.747Z,7.00
2019-03-23T22:01:53.808Z,7.00
2019-03-23T22:02:27.636Z,7.00
2019-03-23T22:03:00.975Z,6.90
2019-03-23T22:03:34.004Z,6.90
2019-03-23T22:04:07.024Z,6.90
2019-03-23T22:04:40.048Z,6.90
2019-03-23T22:05:13.172Z,6.80
2019-03-23T22:05:46.492Z,6.80
2019-03-23T22:06:19.512Z,6.80
2019-03-23T22:06:52.540Z,6.80
2019-03-23T22:07:25.596Z,6.80
2019-03-23T22:07:58.718Z,6.80
2019-03-23T22:08:31.744Z,6.80
2019-03-23T22:09:06.246Z,6.80
2019-03-23T22:09:39.262Z,6.70
2019-03-23T22:10:12.514Z,6.70
2019-03-23T22:10:45.527Z,6.70
2019-03-23T22:11:18.879Z,6.70
2019-03-23T22:11:51.903Z,6.70
2019-03-23T22:12:24.920Z,6.70
2019-03-23T22:12:58.042Z,6.60
2019-03-23T22:13:31.055Z,6.60
2019-03-23T22:14:04.116Z,6.60
2019-03-23T22:14:41.622Z,6.60
2019-03-23T22:15:12.768Z,6.60
2019-03-23T22:15:46.147Z,6.60
2019-03-23T22:16:19.172Z,6.60
2019-03-23T22:16:52.186Z,6.60
2019-03-23T22:17:25.243Z,6.50
2019-03-23T22:17:58.420Z,6.50
2019-03-23T22:18:31.878Z,6.50
2019-03-23T22:19:04.883Z,6.50
2019-03-23T22:19:37.900Z,6.40
2019-03-23T22:20:11.127Z,6.40
2019-03-23T22:20:44.152Z,6.40
2019-03-23T22:21:17.520Z,6.40
2019-03-23T22:21:50.550Z,6.30
2019-03-23T22:22:23.580Z,6.30
2019-03-23T22:22:56.597Z,6.30
2019-03-23T22:23:29.914Z,6.30
2019-03-23T22:24:02.967Z,6.30
2019-03-23T22:24:35.985Z,6.30
2019-03-23T22:25:10.455Z,6.30
2019-03-23T22:25:43.765Z,6.30
2019-03-23T22:26:16.768Z,6.30
2019-03-23T22:26:50.234Z,6.30
2019-03-23T22:27:23.260Z,6.30
2019-03-23T22:27:56.454Z,6.30
2019-03-23T22:28:29.466Z,6.30
2019-03-23T22:29:02.588Z,6.30
2019-03-23T22:29:36.003Z,6.20
2019-03-23T22:30:10.316Z,6.20
2019-03-23T22:30:43.996Z,6.20
2019-03-23T22:31:17.413Z,6.20
2019-03-23T22:31:50.429Z,6.20
2019-03-23T22:32:23.726Z,6.20
2019-03-23T22:32:56.730Z,6.30
2019-03-23T22:33:29.750Z,6.20
2019-03-23T22:34:02.888Z,6.20
2019-03-23T22:34:35.910Z,6.20
2019-03-23T22:35:09.459Z,6.20
2019-03-23T22:35:43.202Z,6.20
2019-03-23T22:36:16.516Z,6.20
2019-03-23T22:36:49.536Z,6.20
2019-03-23T22:37:22.549Z,6.20
2019-03-23T22:37:55.569Z,6.20
2019-03-23T22:38:28.587Z,6.20
2019-03-23T22:39:01.598Z,6.20
2019-03-23T22:39:35.465Z,6.20
2019-03-23T22:40:09.385Z,6.20
2019-03-23T22:40:42.452Z,6.20
2019-03-23T22:41:16.219Z,6.10
2019-03-23T22:41:49.240Z,6.10
2019-03-23T22:42:22.584Z,6.10
2019-03-23T22:42:55.875Z,6.10
2019-03-23T22:43:28.874Z,6.10
2019-03-23T22:44:02.316Z,6.10
2019-03-23T22:44:35.327Z,6.10
2019-03-23T22:45:09.741Z,6.10
2019-03-23T22:45:42.752Z,6.10
2019-03-23T22:46:15.798Z,6.10
2019-03-23T22:46:48.813Z,6.10
2019-03-23T22:47:22.194Z,6.10
2019-03-23T22:47:55.511Z,6.10
2019-03-23T22:48:28.523Z,6.10
2019-03-23T22:49:01.916Z,6.00
2019-03-23T22:49:34.949Z,6.10
2019-03-23T22:50:08.983Z,6.10
2019-03-23T22:50:41.986Z,6.10
2019-03-23T22:51:15.016Z,6.00
2019-03-23T22:51:48.066Z,6.10
2019-03-23T22:52:21.121Z,6.10
2019-03-23T22:52:54.510Z,6.00
2019-03-23T22:53:27.529Z,6.00
2019-03-23T22:54:00.534Z,6.00
2019-03-23T22:54:33.550Z,6.00
2019-03-23T22:55:06.996Z,6.00
2019-03-23T22:55:40.019Z,6.10
2019-03-23T22:56:13.045Z,6.00
2019-03-23T22:56:46.428Z,6.10
2019-03-23T22:57:19.773Z,6.00
2019-03-23T22:57:53.082Z,6.10
2019-03-23T22:58:26.090Z,6.10
2019-03-23T22:58:59.111Z,6.10
2019-03-23T22:59:32.520Z,6.10
2019-03-23T23:00:06.747Z,6.10
2019-03-23T23:00:43.784Z,6.10
2019-03-23T23:01:17.250Z,6.10
2019-03-23T23:01:50.255Z,6.10
2019-03-23T23:02:23.290Z,6.10
2019-03-23T23:02:56.598Z,6.10
2019-03-23T23:03:29.707Z,6.10
2019-03-23T23:04:02.736Z,6.10
2019-03-23T23:04:35.771Z,6.10
2019-03-23T23:05:08.979Z,6.10
2019-03-23T23:05:42.014Z,6.10
2019-03-23T23:06:15.478Z,6.10
2019-03-23T23:06:48.505Z,6.10
2019-03-23T23:07:21.503Z,6.00
2019-03-23T23:07:54.564Z,6.00
2019-03-23T23:08:27.890Z,6.00
2019-03-23T23:09:00.918Z,6.00
2019-03-23T23:09:33.995Z,6.00
2019-03-23T23:10:07.141Z,5.90
2019-03-23T23:10:40.578Z,6.00
2019-03-23T23:11:13.586Z,6.00
2019-03-23T23:11:46.599Z,5.90
2019-03-23T23:12:19.612Z,5.90
2019-03-23T23:12:52.633Z,5.90
2019-03-23T23:13:26.108Z,5.90
2019-03-23T23:13:59.244Z,5.90
2019-03-23T23:14:32.267Z,5.90
2019-03-23T23:15:06.496Z,5.90
2019-03-23T23:15:39.946Z,5.90
2019-03-23T23:16:12.960Z,5.90
2019-03-23T23:16:45.970Z,5.90
2019-03-23T23:17:19.082Z,5.90
2019-03-23T23:17:52.100Z,5.90
2019-03-23T23:18:25.249Z,5.90
2019-03-23T23:18:58.349Z,5.90
2019-03-23T23:19:31.359Z,5.90
2019-03-23T23:20:05.111Z,5.80
2019-03-23T23:20:38.126Z,5.80
2019-03-23T23:21:11.652Z,5.80
2019-03-23T23:21:45.124Z,5.80
2019-03-23T23:22:18.134Z,5.80
2019-03-23T23:22:51.158Z,5.80
2019-03-23T23:23:24.496Z,5.80
2019-03-23T23:23:57.876Z,5.80
2019-03-23T23:24:31.251Z,5.80
2019-03-23T23:25:05.042Z,5.80
2019-03-23T23:25:38.054Z,5.80
2019-03-23T23:26:11.121Z,5.80
2019-03-23T23:26:44.092Z,5.80
2019-03-23T23:27:17.119Z,5.80
2019-03-23T23:27:50.566Z,5.80
2019-03-23T23:28:23.576Z,5.80
2019-03-23T23:28:56.590Z,5.80
2019-03-23T23:29:29.598Z,5.80
2019-03-23T23:30:03.301Z,5.80
2019-03-23T23:30:43.525Z,5.80
2019-03-23T23:31:12.088Z,5.80
2019-03-23T23:31:45.122Z,5.80
2019-03-23T23:32:18.141Z,5.80
2019-03-23T23:32:51.484Z,5.80
2019-03-23T23:33:24.487Z,5.80
2019-03-23T23:33:57.512Z,5.80
2019-03-23T23:34:30.915Z,5.80
2019-03-23T23:35:04.697Z,5.80
2019-03-23T23:35:37.734Z,5.80
2019-03-23T23:36:11.071Z,5.80
2019-03-23T23:36:44.088Z,5.80
2019-03-23T23:37:17.116Z,5.80
2019-03-23T23:37:50.552Z,5.80
2019-03-23T23:38:23.569Z,5.80
2019-03-23T23:38:56.978Z,5.90
2019-03-23T23:39:29.996Z,5.90
2019-03-23T23:40:03.897Z,5.90
2019-03-23T23:40:37.305Z,5.90
2019-03-23T23:41:10.360Z,5.90
2019-03-23T23:41:43.369Z,5.90
2019-03-23T23:42:16.611Z,5.90
2019-03-23T23:42:49.618Z,5.90
2019-03-23T23:43:22.645Z,5.90
2019-03-23T23:43:55.958Z,5.90
2019-03-23T23:44:28.974Z,5.90
2019-03-23T23:45:01.984Z,5.90
2019-03-23T23:45:34.999Z,5.80
2019-03-23T23:46:08.002Z,5.80
2019-03-23T23:46:41.255Z,5.80
2019-03-23T23:47:14.280Z,5.80
2019-03-23T23:47:47.278Z,5.80
2019-03-23T23:48:20.309Z,5.80
2019-03-23T23:48:53.312Z,5.80
2019-03-23T23:49:26.331Z,5.80
2019-03-23T23:49:59.742Z,5.80
2019-03-23T23:50:32.760Z,5.80
2019-03-23T23:51:05.767Z,5.80
2019-03-23T23:51:38.778Z,5.80
2019-03-23T23:52:11.831Z,5.80
2019-03-23T23:52:44.848Z,5.70
2019-03-23T23:53:17.887Z,5.70
2019-03-23T23:53:51.211Z,5.70
2019-03-23T23:54:24.230Z,5.70
2019-03-23T23:54:57.239Z,5.70
2019-03-23T23:55:30.262Z,5.70
2019-03-23T23:56:03.284Z,5.70
2019-03-23T23:56:36.324Z,5.70
2019-03-23T23:57:09.675Z,5.70
2019-03-23T23:57:42.721Z,5.70
2019-03-23T23:58:15.744Z,5.70
2019-03-23T23:58:49.091Z,5.70
2019-03-23T23:59:22.128Z,5.70
2019-03-23T23:59:55.153Z,5.70
